sensor_id;sensor_type;location;lat;lon;timestamp;P1;durP1;ratioP1;P2;durP2;ratioP2
45236;SDS011;30973;51.442;3.580;2022-08-19T00:01:51;28.65;;;21.92;;
45236;SDS011;30973;51.442;3.580;2022-08-19T00:04:21;26.73;;;21.30;;
45236;SDS011;30973;51.442;3.580;2022-08-19T00:06:51;25.95;;;19.80;;
45236;SDS011;30973;51.442;3.580;2022-08-19T00:09:19;27.15;;;20.60;;
45236;SDS011;30973;51.442;3.580;2022-08-19T00:11:47;26.88;;;19.88;;
45236;SDS011;30973;51.442;3.580;2022-08-19T00:14:16;26.58;;;18.88;;
45236;SDS011;30973;51.442;3.580;2022-08-19T00:16:44;22.92;;;19.42;;
45236;SDS011;30973;51.442;3.580;2022-08-19T00:19:14;25.00;;;18.13;;
45236;SDS011;30973;51.442;3.580;2022-08-19T00:21:42;24.17;;;17.60;;
45236;SDS011;30973;51.442;3.580;2022-08-19T00:24:10;22.52;;;17.90;;
45236;SDS011;30973;51.442;3.580;2022-08-19T00:26:41;24.52;;;17.27;;
45236;SDS011;30973;51.442;3.580;2022-08-19T00:29:10;22.73;;;18.10;;
45236;SDS011;30973;51.442;3.580;2022-08-19T00:31:39;24.10;;;17.80;;
45236;SDS011;30973;51.442;3.580;2022-08-19T00:34:08;20.27;;;16.25;;
45236;SDS011;30973;51.442;3.580;2022-08-19T00:36:37;22.55;;;17.55;;
45236;SDS011;30973;51.442;3.580;2022-08-19T00:39:06;21.42;;;16.60;;
45236;SDS011;30973;51.442;3.580;2022-08-19T00:41:34;27.20;;;17.30;;
45236;SDS011;30973;51.442;3.580;2022-08-19T00:44:04;26.40;;;17.95;;
45236;SDS011;30973;51.442;3.580;2022-08-19T00:46:36;23.27;;;17.38;;
45236;SDS011;30973;51.442;3.580;2022-08-19T00:49:06;25.40;;;17.25;;
45236;SDS011;30973;51.442;3.580;2022-08-19T00:51:35;24.17;;;16.77;;
45236;SDS011;30973;51.442;3.580;2022-08-19T00:54:03;23.02;;;17.55;;
45236;SDS011;30973;51.442;3.580;2022-08-19T00:56:31;22.98;;;15.60;;
45236;SDS011;30973;51.442;3.580;2022-08-19T00:58:59;23.05;;;17.55;;
45236;SDS011;30973;51.442;3.580;2022-08-19T01:01:28;22.75;;;16.83;;
45236;SDS011;30973;51.442;3.580;2022-08-19T01:03:55;27.25;;;17.35;;
45236;SDS011;30973;51.442;3.580;2022-08-19T01:06:25;22.58;;;17.48;;
45236;SDS011;30973;51.442;3.580;2022-08-19T01:08:53;26.48;;;17.45;;
45236;SDS011;30973;51.442;3.580;2022-08-19T01:11:21;23.35;;;17.30;;
45236;SDS011;30973;51.442;3.580;2022-08-19T01:13:50;23.55;;;16.70;;
45236;SDS011;30973;51.442;3.580;2022-08-19T01:16:18;24.33;;;16.83;;
45236;SDS011;30973;51.442;3.580;2022-08-19T01:18:46;24.52;;;17.17;;
45236;SDS011;30973;51.442;3.580;2022-08-19T01:21:31;26.88;;;17.13;;
45236;SDS011;30973;51.442;3.580;2022-08-19T01:24:00;26.00;;;15.48;;
45236;SDS011;30973;51.442;3.580;2022-08-19T01:26:28;23.50;;;17.10;;
45236;SDS011;30973;51.442;3.580;2022-08-19T01:28:58;20.63;;;16.05;;
45236;SDS011;30973;51.442;3.580;2022-08-19T01:31:30;22.88;;;16.67;;
45236;SDS011;30973;51.442;3.580;2022-08-19T01:33:59;25.40;;;18.23;;
45236;SDS011;30973;51.442;3.580;2022-08-19T01:36:32;24.88;;;17.70;;
45236;SDS011;30973;51.442;3.580;2022-08-19T01:39:01;24.17;;;15.70;;
45236;SDS011;30973;51.442;3.580;2022-08-19T01:41:29;24.58;;;16.00;;
45236;SDS011;30973;51.442;3.580;2022-08-19T01:43:56;24.80;;;16.45;;
45236;SDS011;30973;51.442;3.580;2022-08-19T01:46:43;23.95;;;17.15;;
45236;SDS011;30973;51.442;3.580;2022-08-19T01:49:11;25.25;;;15.68;;
45236;SDS011;30973;51.442;3.580;2022-08-19T01:51:38;23.33;;;15.02;;
45236;SDS011;30973;51.442;3.580;2022-08-19T01:54:07;21.73;;;15.60;;
45236;SDS011;30973;51.442;3.580;2022-08-19T01:56:35;22.38;;;15.07;;
45236;SDS011;30973;51.442;3.580;2022-08-19T01:59:05;23.77;;;14.52;;
45236;SDS011;30973;51.442;3.580;2022-08-19T02:01:36;25.42;;;16.02;;
45236;SDS011;30973;51.442;3.580;2022-08-19T02:04:03;22.02;;;14.95;;
45236;SDS011;30973;51.442;3.580;2022-08-19T02:06:32;23.75;;;15.43;;
45236;SDS011;30973;51.442;3.580;2022-08-19T02:09:00;20.63;;;14.73;;
45236;SDS011;30973;51.442;3.580;2022-08-19T02:11:29;21.63;;;14.70;;
45236;SDS011;30973;51.442;3.580;2022-08-19T02:14:00;21.25;;;14.95;;
45236;SDS011;30973;51.442;3.580;2022-08-19T02:16:28;23.05;;;14.13;;
45236;SDS011;30973;51.442;3.580;2022-08-19T02:18:57;22.55;;;14.73;;
45236;SDS011;30973;51.442;3.580;2022-08-19T02:21:27;30.42;;;14.63;;
45236;SDS011;30973;51.442;3.580;2022-08-19T02:23:55;22.88;;;14.60;;
45236;SDS011;30973;51.442;3.580;2022-08-19T02:26:22;21.35;;;13.50;;
45236;SDS011;30973;51.442;3.580;2022-08-19T02:28:50;22.35;;;14.30;;
45236;SDS011;30973;51.442;3.580;2022-08-19T02:31:19;22.60;;;13.82;;
45236;SDS011;30973;51.442;3.580;2022-08-19T02:33:47;21.33;;;12.55;;
45236;SDS011;30973;51.442;3.580;2022-08-19T02:36:15;21.55;;;13.50;;
45236;SDS011;30973;51.442;3.580;2022-08-19T02:38:46;21.02;;;14.18;;
45236;SDS011;30973;51.442;3.580;2022-08-19T02:41:25;21.13;;;13.63;;
45236;SDS011;30973;51.442;3.580;2022-08-19T02:43:54;19.17;;;13.73;;
45236;SDS011;30973;51.442;3.580;2022-08-19T02:46:44;21.92;;;13.38;;
45236;SDS011;30973;51.442;3.580;2022-08-19T02:49:13;19.17;;;13.18;;
45236;SDS011;30973;51.442;3.580;2022-08-19T02:51:44;21.88;;;14.75;;
45236;SDS011;30973;51.442;3.580;2022-08-19T02:54:12;22.65;;;13.35;;
45236;SDS011;30973;51.442;3.580;2022-08-19T02:56:40;23.63;;;13.70;;
45236;SDS011;30973;51.442;3.580;2022-08-19T02:59:09;22.15;;;14.40;;
45236;SDS011;30973;51.442;3.580;2022-08-19T03:01:39;22.90;;;13.18;;
45236;SDS011;30973;51.442;3.580;2022-08-19T03:04:09;17.88;;;12.68;;
45236;SDS011;30973;51.442;3.580;2022-08-19T03:06:38;20.05;;;13.85;;
45236;SDS011;30973;51.442;3.580;2022-08-19T03:09:06;21.45;;;13.57;;
45236;SDS011;30973;51.442;3.580;2022-08-19T03:11:34;24.15;;;13.27;;
45236;SDS011;30973;51.442;3.580;2022-08-19T03:14:02;22.77;;;12.57;;
45236;SDS011;30973;51.442;3.580;2022-08-19T03:16:30;22.98;;;13.80;;
45236;SDS011;30973;51.442;3.580;2022-08-19T03:19:00;22.08;;;12.93;;
45236;SDS011;30973;51.442;3.580;2022-08-19T03:21:33;20.27;;;13.90;;
45236;SDS011;30973;51.442;3.580;2022-08-19T03:24:03;25.27;;;12.52;;
45236;SDS011;30973;51.442;3.580;2022-08-19T03:26:31;18.02;;;12.15;;
45236;SDS011;30973;51.442;3.580;2022-08-19T03:29:03;18.52;;;12.50;;
45236;SDS011;30973;51.442;3.580;2022-08-19T03:31:31;24.45;;;13.32;;
45236;SDS011;30973;51.442;3.580;2022-08-19T03:34:12;23.73;;;13.30;;
45236;SDS011;30973;51.442;3.580;2022-08-19T03:36:40;26.48;;;12.60;;
45236;SDS011;30973;51.442;3.580;2022-08-19T03:39:09;18.73;;;12.80;;
45236;SDS011;30973;51.442;3.580;2022-08-19T03:41:37;25.17;;;13.65;;
45236;SDS011;30973;51.442;3.580;2022-08-19T03:46:42;17.35;;;11.73;;
45236;SDS011;30973;51.442;3.580;2022-08-19T03:49:10;22.02;;;12.88;;
45236;SDS011;30973;51.442;3.580;2022-08-19T03:51:40;20.98;;;12.20;;
45236;SDS011;30973;51.442;3.580;2022-08-19T03:54:09;20.23;;;11.55;;
45236;SDS011;30973;51.442;3.580;2022-08-19T03:56:38;21.42;;;11.07;;
45236;SDS011;30973;51.442;3.580;2022-08-19T03:59:06;18.27;;;11.32;;
45236;SDS011;30973;51.442;3.580;2022-08-19T04:01:35;24.33;;;11.90;;
45236;SDS011;30973;51.442;3.580;2022-08-19T04:04:03;18.55;;;11.98;;
45236;SDS011;30973;51.442;3.580;2022-08-19T04:06:31;22.17;;;12.10;;
45236;SDS011;30973;51.442;3.580;2022-08-19T04:09:01;18.80;;;12.18;;
45236;SDS011;30973;51.442;3.580;2022-08-19T04:11:31;20.25;;;11.93;;
45236;SDS011;30973;51.442;3.580;2022-08-19T04:14:10;20.88;;;11.07;;
45236;SDS011;30973;51.442;3.580;2022-08-19T04:16:38;18.75;;;11.55;;
45236;SDS011;30973;51.442;3.580;2022-08-19T04:19:06;19.00;;;11.93;;
45236;SDS011;30973;51.442;3.580;2022-08-19T04:21:33;17.38;;;11.20;;
45236;SDS011;30973;51.442;3.580;2022-08-19T04:24:01;19.38;;;10.98;;
45236;SDS011;30973;51.442;3.580;2022-08-19T04:26:31;20.73;;;11.70;;
45236;SDS011;30973;51.442;3.580;2022-08-19T04:29:04;22.55;;;10.95;;
45236;SDS011;30973;51.442;3.580;2022-08-19T04:31:38;22.35;;;10.82;;
45236;SDS011;30973;51.442;3.580;2022-08-19T04:34:07;17.90;;;10.40;;
45236;SDS011;30973;51.442;3.580;2022-08-19T04:36:38;18.88;;;10.48;;
45236;SDS011;30973;51.442;3.580;2022-08-19T04:39:08;20.10;;;10.45;;
45236;SDS011;30973;51.442;3.580;2022-08-19T04:41:36;18.08;;;9.60;;
45236;SDS011;30973;51.442;3.580;2022-08-19T04:44:23;18.38;;;10.25;;
45236;SDS011;30973;51.442;3.580;2022-08-19T04:46:52;18.63;;;11.30;;
45236;SDS011;30973;51.442;3.580;2022-08-19T04:49:20;16.42;;;9.77;;
45236;SDS011;30973;51.442;3.580;2022-08-19T04:51:49;19.50;;;10.52;;
45236;SDS011;30973;51.442;3.580;2022-08-19T04:54:21;16.75;;;10.10;;
45236;SDS011;30973;51.442;3.580;2022-08-19T04:57:05;18.90;;;10.27;;
45236;SDS011;30973;51.442;3.580;2022-08-19T04:59:34;19.17;;;10.90;;
45236;SDS011;30973;51.442;3.580;2022-08-19T05:02:02;17.13;;;9.85;;
45236;SDS011;30973;51.442;3.580;2022-08-19T05:04:30;15.93;;;10.07;;
45236;SDS011;30973;51.442;3.580;2022-08-19T05:06:59;15.13;;;9.55;;
45236;SDS011;30973;51.442;3.580;2022-08-19T05:09:28;17.00;;;9.88;;
45236;SDS011;30973;51.442;3.580;2022-08-19T05:12:16;17.23;;;9.75;;
45236;SDS011;30973;51.442;3.580;2022-08-19T05:14:43;18.63;;;9.75;;
45236;SDS011;30973;51.442;3.580;2022-08-19T05:17:12;15.82;;;9.80;;
45236;SDS011;30973;51.442;3.580;2022-08-19T05:20:00;15.52;;;9.32;;
45236;SDS011;30973;51.442;3.580;2022-08-19T05:22:46;17.10;;;10.30;;
45236;SDS011;30973;51.442;3.580;2022-08-19T05:25:16;17.35;;;9.45;;
45236;SDS011;30973;51.442;3.580;2022-08-19T05:27:47;17.45;;;10.43;;
45236;SDS011;30973;51.442;3.580;2022-08-19T05:30:15;20.83;;;9.80;;
45236;SDS011;30973;51.442;3.580;2022-08-19T05:32:42;16.17;;;9.23;;
45236;SDS011;30973;51.442;3.580;2022-08-19T05:35:10;16.63;;;9.40;;
45236;SDS011;30973;51.442;3.580;2022-08-19T05:37:38;15.30;;;9.80;;
45236;SDS011;30973;51.442;3.580;2022-08-19T05:40:07;18.23;;;9.77;;
45236;SDS011;30973;51.442;3.580;2022-08-19T05:42:35;15.85;;;9.65;;
45236;SDS011;30973;51.442;3.580;2022-08-19T05:45:03;15.85;;;10.02;;
45236;SDS011;30973;51.442;3.580;2022-08-19T05:47:32;17.58;;;10.00;;
45236;SDS011;30973;51.442;3.580;2022-08-19T05:49:59;16.77;;;10.20;;
45236;SDS011;30973;51.442;3.580;2022-08-19T05:52:30;15.45;;;10.30;;
45236;SDS011;30973;51.442;3.580;2022-08-19T05:54:59;16.50;;;9.18;;
45236;SDS011;30973;51.442;3.580;2022-08-19T05:57:26;18.25;;;10.15;;
45236;SDS011;30973;51.442;3.580;2022-08-19T05:59:55;17.92;;;10.02;;
45236;SDS011;30973;51.442;3.580;2022-08-19T06:02:25;17.33;;;9.95;;
45236;SDS011;30973;51.442;3.580;2022-08-19T06:04:53;13.00;;;9.38;;
45236;SDS011;30973;51.442;3.580;2022-08-19T06:07:20;13.18;;;9.48;;
45236;SDS011;30973;51.442;3.580;2022-08-19T06:09:48;13.10;;;9.15;;
45236;SDS011;30973;51.442;3.580;2022-08-19T06:12:26;14.55;;;9.48;;
45236;SDS011;30973;51.442;3.580;2022-08-19T06:14:58;16.50;;;9.35;;
45236;SDS011;30973;51.442;3.580;2022-08-19T06:17:28;15.93;;;9.70;;
45236;SDS011;30973;51.442;3.580;2022-08-19T06:19:57;17.80;;;9.80;;
45236;SDS011;30973;51.442;3.580;2022-08-19T06:22:26;12.77;;;9.20;;
45236;SDS011;30973;51.442;3.580;2022-08-19T06:24:54;13.48;;;9.63;;
45236;SDS011;30973;51.442;3.580;2022-08-19T06:27:22;16.48;;;10.20;;
45236;SDS011;30973;51.442;3.580;2022-08-19T06:29:50;13.65;;;9.23;;
45236;SDS011;30973;51.442;3.580;2022-08-19T06:32:17;13.93;;;9.65;;
45236;SDS011;30973;51.442;3.580;2022-08-19T06:34:45;14.88;;;9.93;;
45236;SDS011;30973;51.442;3.580;2022-08-19T06:37:14;18.05;;;10.45;;
45236;SDS011;30973;51.442;3.580;2022-08-19T06:39:42;13.27;;;9.95;;
45236;SDS011;30973;51.442;3.580;2022-08-19T06:42:11;13.73;;;10.02;;
45236;SDS011;30973;51.442;3.580;2022-08-19T06:44:40;12.18;;;9.88;;
45236;SDS011;30973;51.442;3.580;2022-08-19T06:47:17;14.88;;;9.85;;
45236;SDS011;30973;51.442;3.580;2022-08-19T06:49:53;13.60;;;10.15;;
45236;SDS011;30973;51.442;3.580;2022-08-19T06:52:33;16.38;;;10.00;;
45236;SDS011;30973;51.442;3.580;2022-08-19T06:55:03;15.30;;;9.43;;
45236;SDS011;30973;51.442;3.580;2022-08-19T06:57:32;13.85;;;9.57;;
45236;SDS011;30973;51.442;3.580;2022-08-19T07:00:00;14.63;;;9.38;;
45236;SDS011;30973;51.442;3.580;2022-08-19T07:02:28;18.38;;;10.32;;
45236;SDS011;30973;51.442;3.580;2022-08-19T07:04:56;13.85;;;9.10;;
45236;SDS011;30973;51.442;3.580;2022-08-19T07:07:24;11.63;;;9.10;;
45236;SDS011;30973;51.442;3.580;2022-08-19T07:09:52;13.38;;;8.95;;
45236;SDS011;30973;51.442;3.580;2022-08-19T07:12:28;13.02;;;9.43;;
45236;SDS011;30973;51.442;3.580;2022-08-19T07:14:58;9.35;;;6.88;;
45236;SDS011;30973;51.442;3.580;2022-08-19T07:17:26;10.63;;;6.95;;
45236;SDS011;30973;51.442;3.580;2022-08-19T07:19:54;11.50;;;7.30;;
45236;SDS011;30973;51.442;3.580;2022-08-19T07:22:22;8.63;;;6.15;;
45236;SDS011;30973;51.442;3.580;2022-08-19T07:24:52;9.00;;;6.53;;
45236;SDS011;30973;51.442;3.580;2022-08-19T07:27:20;9.60;;;5.72;;
45236;SDS011;30973;51.442;3.580;2022-08-19T07:29:50;7.70;;;6.18;;
45236;SDS011;30973;51.442;3.580;2022-08-19T07:32:22;12.82;;;7.38;;
45236;SDS011;30973;51.442;3.580;2022-08-19T07:34:53;9.93;;;7.13;;
45236;SDS011;30973;51.442;3.580;2022-08-19T07:37:23;8.18;;;7.28;;
45236;SDS011;30973;51.442;3.580;2022-08-19T07:39:58;12.02;;;7.60;;
45236;SDS011;30973;51.442;3.580;2022-08-19T07:42:26;10.55;;;7.13;;
45236;SDS011;30973;51.442;3.580;2022-08-19T07:44:56;11.02;;;7.22;;
45236;SDS011;30973;51.442;3.580;2022-08-19T07:47:25;10.48;;;7.50;;
45236;SDS011;30973;51.442;3.580;2022-08-19T07:50:15;9.93;;;7.28;;
45236;SDS011;30973;51.442;3.580;2022-08-19T07:52:43;10.07;;;7.40;;
45236;SDS011;30973;51.442;3.580;2022-08-19T07:55:15;9.07;;;7.63;;
45236;SDS011;30973;51.442;3.580;2022-08-19T07:58:02;11.00;;;9.10;;
45236;SDS011;30973;51.442;3.580;2022-08-19T08:00:31;12.52;;;8.32;;
45236;SDS011;30973;51.442;3.580;2022-08-19T08:02:59;12.52;;;8.95;;
45236;SDS011;30973;51.442;3.580;2022-08-19T08:05:27;8.95;;;8.02;;
45236;SDS011;30973;51.442;3.580;2022-08-19T08:08:13;11.02;;;9.05;;
45236;SDS011;30973;51.442;3.580;2022-08-19T08:10:53;12.13;;;8.75;;
45236;SDS011;30973;51.442;3.580;2022-08-19T08:13:23;11.80;;;8.98;;
45236;SDS011;30973;51.442;3.580;2022-08-19T08:15:52;12.65;;;10.07;;
45236;SDS011;30973;51.442;3.580;2022-08-19T08:18:22;11.50;;;9.50;;
45236;SDS011;30973;51.442;3.580;2022-08-19T08:20:54;10.57;;;9.55;;
45236;SDS011;30973;51.442;3.580;2022-08-19T08:23:22;12.02;;;9.95;;
45236;SDS011;30973;51.442;3.580;2022-08-19T08:25:54;11.85;;;10.13;;
45236;SDS011;30973;51.442;3.580;2022-08-19T08:28:24;11.02;;;9.07;;
45236;SDS011;30973;51.442;3.580;2022-08-19T08:30:56;11.45;;;9.68;;
45236;SDS011;30973;51.442;3.580;2022-08-19T08:33:24;13.40;;;10.32;;
45236;SDS011;30973;51.442;3.580;2022-08-19T08:36:01;11.70;;;10.50;;
45236;SDS011;30973;51.442;3.580;2022-08-19T08:38:31;13.82;;;11.02;;
45236;SDS011;30973;51.442;3.580;2022-08-19T08:41:13;12.73;;;10.05;;
45236;SDS011;30973;51.442;3.580;2022-08-19T08:43:47;12.40;;;9.35;;
45236;SDS011;30973;51.442;3.580;2022-08-19T08:46:34;10.73;;;9.25;;
45236;SDS011;30973;51.442;3.580;2022-08-19T08:54:45;9.48;;;7.45;;
45236;SDS011;30973;51.442;3.580;2022-08-19T08:57:23;8.38;;;7.00;;
45236;SDS011;30973;51.442;3.580;2022-08-19T08:59:55;8.68;;;7.13;;
45236;SDS011;30973;51.442;3.580;2022-08-19T09:02:24;8.00;;;6.47;;
45236;SDS011;30973;51.442;3.580;2022-08-19T09:04:54;7.65;;;6.43;;
45236;SDS011;30973;51.442;3.580;2022-08-19T09:07:42;6.28;;;4.90;;
45236;SDS011;30973;51.442;3.580;2022-08-19T09:10:28;6.70;;;4.15;;
45236;SDS011;30973;51.442;3.580;2022-08-19T09:13:00;4.45;;;3.10;;
45236;SDS011;30973;51.442;3.580;2022-08-19T09:15:36;5.35;;;2.95;;
45236;SDS011;30973;51.442;3.580;2022-08-19T09:18:06;4.57;;;3.50;;
45236;SDS011;30973;51.442;3.580;2022-08-19T09:20:45;6.75;;;4.05;;
45236;SDS011;30973;51.442;3.580;2022-08-19T09:23:14;8.50;;;4.68;;
45236;SDS011;30973;51.442;3.580;2022-08-19T09:25:42;6.75;;;3.88;;
45236;SDS011;30973;51.442;3.580;2022-08-19T09:28:09;6.05;;;4.05;;
45236;SDS011;30973;51.442;3.580;2022-08-19T09:30:48;6.35;;;4.50;;
45236;SDS011;30973;51.442;3.580;2022-08-19T09:33:18;6.05;;;3.88;;
45236;SDS011;30973;51.442;3.580;2022-08-19T09:35:46;7.25;;;4.00;;
45236;SDS011;30973;51.442;3.580;2022-08-19T09:38:19;6.35;;;4.82;;
45236;SDS011;30973;51.442;3.580;2022-08-19T09:40:47;5.78;;;4.70;;
45236;SDS011;30973;51.442;3.580;2022-08-19T09:43:16;7.03;;;4.47;;
45236;SDS011;30973;51.442;3.580;2022-08-19T09:46:00;6.03;;;4.63;;
45236;SDS011;30973;51.442;3.580;2022-08-19T09:48:27;8.13;;;5.07;;
45236;SDS011;30973;51.442;3.580;2022-08-19T09:51:01;7.35;;;4.85;;
45236;SDS011;30973;51.442;3.580;2022-08-19T09:53:30;7.80;;;5.18;;
45236;SDS011;30973;51.442;3.580;2022-08-19T09:55:59;5.72;;;4.30;;
45236;SDS011;30973;51.442;3.580;2022-08-19T09:58:29;4.57;;;2.67;;
45236;SDS011;30973;51.442;3.580;2022-08-19T10:00:57;4.03;;;2.80;;
45236;SDS011;30973;51.442;3.580;2022-08-19T10:03:26;5.45;;;2.15;;
45236;SDS011;30973;51.442;3.580;2022-08-19T10:05:56;4.30;;;2.10;;
45236;SDS011;30973;51.442;3.580;2022-08-19T10:08:25;5.22;;;1.88;;
45236;SDS011;30973;51.442;3.580;2022-08-19T10:10:54;4.43;;;2.05;;
45236;SDS011;30973;51.442;3.580;2022-08-19T10:13:25;3.53;;;1.73;;
45236;SDS011;30973;51.442;3.580;2022-08-19T10:15:54;3.15;;;1.50;;
45236;SDS011;30973;51.442;3.580;2022-08-19T10:18:23;8.00;;;2.03;;
45236;SDS011;30973;51.442;3.580;2022-08-19T10:20:52;4.93;;;1.58;;
45236;SDS011;30973;51.442;3.580;2022-08-19T10:23:21;6.13;;;1.90;;
45236;SDS011;30973;51.442;3.580;2022-08-19T10:25:49;5.22;;;1.95;;
45236;SDS011;30973;51.442;3.580;2022-08-19T10:28:19;4.35;;;2.05;;
45236;SDS011;30973;51.442;3.580;2022-08-19T10:30:49;4.78;;;2.22;;
45236;SDS011;30973;51.442;3.580;2022-08-19T10:33:16;2.35;;;1.55;;
45236;SDS011;30973;51.442;3.580;2022-08-19T10:36:09;3.35;;;1.45;;
45236;SDS011;30973;51.442;3.580;2022-08-19T10:38:37;3.42;;;1.70;;
45236;SDS011;30973;51.442;3.580;2022-08-19T10:41:20;2.15;;;1.40;;
45236;SDS011;30973;51.442;3.580;2022-08-19T10:43:53;3.63;;;1.77;;
45236;SDS011;30973;51.442;3.580;2022-08-19T10:46:21;4.75;;;2.05;;
45236;SDS011;30973;51.442;3.580;2022-08-19T10:48:50;5.18;;;2.10;;
45236;SDS011;30973;51.442;3.580;2022-08-19T10:51:18;3.92;;;1.90;;
45236;SDS011;30973;51.442;3.580;2022-08-19T10:56:41;3.70;;;2.22;;
45236;SDS011;30973;51.442;3.580;2022-08-19T10:59:19;5.53;;;1.90;;
45236;SDS011;30973;51.442;3.580;2022-08-19T11:01:52;3.80;;;1.75;;
45236;SDS011;30973;51.442;3.580;2022-08-19T11:04:23;4.03;;;2.00;;
45236;SDS011;30973;51.442;3.580;2022-08-19T11:06:55;4.40;;;1.85;;
45236;SDS011;30973;51.442;3.580;2022-08-19T11:09:24;4.03;;;2.05;;
45236;SDS011;30973;51.442;3.580;2022-08-19T11:11:59;5.70;;;2.20;;
45236;SDS011;30973;51.442;3.580;2022-08-19T11:14:30;5.28;;;2.45;;
45236;SDS011;30973;51.442;3.580;2022-08-19T11:17:00;5.13;;;2.13;;
45236;SDS011;30973;51.442;3.580;2022-08-19T11:19:27;4.75;;;2.58;;
45236;SDS011;30973;51.442;3.580;2022-08-19T11:21:55;5.72;;;3.47;;
45236;SDS011;30973;51.442;3.580;2022-08-19T11:24:25;6.82;;;3.83;;
45236;SDS011;30973;51.442;3.580;2022-08-19T11:26:54;6.18;;;4.10;;
45236;SDS011;30973;51.442;3.580;2022-08-19T11:29:26;7.88;;;4.47;;
45236;SDS011;30973;51.442;3.580;2022-08-19T11:31:54;6.40;;;4.32;;
45236;SDS011;30973;51.442;3.580;2022-08-19T11:34:22;7.07;;;5.10;;
45236;SDS011;30973;51.442;3.580;2022-08-19T11:36:51;11.75;;;7.03;;
45236;SDS011;30973;51.442;3.580;2022-08-19T11:39:19;11.10;;;10.00;;
45236;SDS011;30973;51.442;3.580;2022-08-19T11:41:48;8.60;;;7.68;;
45236;SDS011;30973;51.442;3.580;2022-08-19T11:44:15;7.82;;;5.72;;
45236;SDS011;30973;51.442;3.580;2022-08-19T11:46:44;9.82;;;6.00;;
45236;SDS011;30973;51.442;3.580;2022-08-19T11:49:13;7.95;;;5.68;;
45236;SDS011;30973;51.442;3.580;2022-08-19T11:51:41;6.97;;;5.47;;
45236;SDS011;30973;51.442;3.580;2022-08-19T11:54:13;6.97;;;5.95;;
45236;SDS011;30973;51.442;3.580;2022-08-19T11:56:41;8.35;;;5.97;;
45236;SDS011;30973;51.442;3.580;2022-08-19T11:59:09;8.88;;;6.00;;
45236;SDS011;30973;51.442;3.580;2022-08-19T12:01:40;6.88;;;6.18;;
45236;SDS011;30973;51.442;3.580;2022-08-19T12:04:09;9.63;;;6.30;;
45236;SDS011;30973;51.442;3.580;2022-08-19T12:06:38;7.40;;;6.60;;
45236;SDS011;30973;51.442;3.580;2022-08-19T12:09:07;7.47;;;6.57;;
45236;SDS011;30973;51.442;3.580;2022-08-19T12:11:36;8.93;;;6.53;;
45236;SDS011;30973;51.442;3.580;2022-08-19T12:14:04;8.98;;;6.50;;
45236;SDS011;30973;51.442;3.580;2022-08-19T12:16:32;9.73;;;6.72;;
45236;SDS011;30973;51.442;3.580;2022-08-19T12:19:03;9.38;;;7.32;;
45236;SDS011;30973;51.442;3.580;2022-08-19T12:21:33;9.15;;;7.25;;
45236;SDS011;30973;51.442;3.580;2022-08-19T12:24:01;9.90;;;6.88;;
45236;SDS011;30973;51.442;3.580;2022-08-19T12:26:29;7.47;;;6.70;;
45236;SDS011;30973;51.442;3.580;2022-08-19T12:28:58;8.88;;;6.97;;
45236;SDS011;30973;51.442;3.580;2022-08-19T12:31:26;9.23;;;6.32;;
45236;SDS011;30973;51.442;3.580;2022-08-19T12:33:54;5.57;;;4.43;;
45236;SDS011;30973;51.442;3.580;2022-08-19T12:36:22;5.90;;;3.70;;
45236;SDS011;30973;51.442;3.580;2022-08-19T12:38:51;7.05;;;3.70;;
45236;SDS011;30973;51.442;3.580;2022-08-19T12:41:19;4.97;;;3.50;;
45236;SDS011;30973;51.442;3.580;2022-08-19T12:43:49;6.22;;;3.13;;
45236;SDS011;30973;51.442;3.580;2022-08-19T12:46:17;7.30;;;2.80;;
45236;SDS011;30973;51.442;3.580;2022-08-19T12:48:48;6.28;;;2.83;;
45236;SDS011;30973;51.442;3.580;2022-08-19T12:51:20;6.38;;;3.00;;
45236;SDS011;30973;51.442;3.580;2022-08-19T12:53:48;6.07;;;3.30;;
45236;SDS011;30973;51.442;3.580;2022-08-19T12:56:16;8.27;;;3.38;;
45236;SDS011;30973;51.442;3.580;2022-08-19T12:58:48;7.60;;;2.97;;
45236;SDS011;30973;51.442;3.580;2022-08-19T13:01:18;5.43;;;2.80;;
45236;SDS011;30973;51.442;3.580;2022-08-19T13:03:49;6.30;;;2.80;;
45236;SDS011;30973;51.442;3.580;2022-08-19T13:06:19;8.20;;;3.42;;
45236;SDS011;30973;51.442;3.580;2022-08-19T13:08:47;8.38;;;2.83;;
45236;SDS011;30973;51.442;3.580;2022-08-19T13:11:15;8.65;;;3.42;;
45236;SDS011;30973;51.442;3.580;2022-08-19T13:13:45;9.65;;;3.08;;
45236;SDS011;30973;51.442;3.580;2022-08-19T13:16:14;5.03;;;2.75;;
45236;SDS011;30973;51.442;3.580;2022-08-19T13:18:42;5.93;;;3.08;;
45236;SDS011;30973;51.442;3.580;2022-08-19T13:21:11;7.40;;;2.95;;
45236;SDS011;30973;51.442;3.580;2022-08-19T13:23:39;7.68;;;3.03;;
45236;SDS011;30973;51.442;3.580;2022-08-19T13:26:08;81.55;;;19.80;;
45236;SDS011;30973;51.442;3.580;2022-08-19T13:28:35;32.78;;;7.53;;
45236;SDS011;30973;51.442;3.580;2022-08-19T13:31:23;25.27;;;8.00;;
45236;SDS011;30973;51.442;3.580;2022-08-19T13:34:09;14.27;;;2.90;;
45236;SDS011;30973;51.442;3.580;2022-08-19T13:36:37;37.47;;;9.18;;
45236;SDS011;30973;51.442;3.580;2022-08-19T13:39:06;6.05;;;1.60;;
45236;SDS011;30973;51.442;3.580;2022-08-19T13:41:37;3.05;;;1.50;;
45236;SDS011;30973;51.442;3.580;2022-08-19T13:44:04;2.13;;;1.40;;
45236;SDS011;30973;51.442;3.580;2022-08-19T13:46:33;4.90;;;1.35;;
45236;SDS011;30973;51.442;3.580;2022-08-19T13:49:01;2.47;;;1.25;;
45236;SDS011;30973;51.442;3.580;2022-08-19T13:51:28;4.30;;;1.20;;
45236;SDS011;30973;51.442;3.580;2022-08-19T13:53:56;4.05;;;1.60;;
45236;SDS011;30973;51.442;3.580;2022-08-19T13:56:23;2.30;;;1.00;;
45236;SDS011;30973;51.442;3.580;2022-08-19T13:58:52;4.05;;;1.23;;
45236;SDS011;30973;51.442;3.580;2022-08-19T14:01:21;3.25;;;1.10;;
45236;SDS011;30973;51.442;3.580;2022-08-19T14:03:50;2.45;;;1.10;;
45236;SDS011;30973;51.442;3.580;2022-08-19T14:06:18;1.67;;;1.10;;
45236;SDS011;30973;51.442;3.580;2022-08-19T14:08:47;6.50;;;1.88;;
45236;SDS011;30973;51.442;3.580;2022-08-19T14:11:15;3.67;;;1.30;;
45236;SDS011;30973;51.442;3.580;2022-08-19T14:13:43;9.32;;;2.45;;
45236;SDS011;30973;51.442;3.580;2022-08-19T14:16:12;4.85;;;1.80;;
45236;SDS011;30973;51.442;3.580;2022-08-19T14:18:40;3.00;;;1.40;;
45236;SDS011;30973;51.442;3.580;2022-08-19T14:21:08;4.05;;;1.50;;
45236;SDS011;30973;51.442;3.580;2022-08-19T14:23:41;6.70;;;2.35;;
45236;SDS011;30973;51.442;3.580;2022-08-19T14:26:09;5.18;;;1.80;;
45236;SDS011;30973;51.442;3.580;2022-08-19T14:28:38;5.18;;;2.10;;
45236;SDS011;30973;51.442;3.580;2022-08-19T14:31:11;5.40;;;2.35;;
45236;SDS011;30973;51.442;3.580;2022-08-19T14:33:39;5.63;;;1.92;;
45236;SDS011;30973;51.442;3.580;2022-08-19T14:36:06;4.07;;;1.95;;
45236;SDS011;30973;51.442;3.580;2022-08-19T14:38:34;5.70;;;2.40;;
45236;SDS011;30973;51.442;3.580;2022-08-19T14:41:19;5.22;;;2.22;;
45236;SDS011;30973;51.442;3.580;2022-08-19T14:43:48;6.03;;;2.22;;
45236;SDS011;30973;51.442;3.580;2022-08-19T14:46:17;6.63;;;2.58;;
45236;SDS011;30973;51.442;3.580;2022-08-19T14:48:47;6.75;;;2.47;;
45236;SDS011;30973;51.442;3.580;2022-08-19T14:51:18;5.07;;;2.58;;
45236;SDS011;30973;51.442;3.580;2022-08-19T14:53:46;5.55;;;2.63;;
45236;SDS011;30973;51.442;3.580;2022-08-19T14:56:19;8.90;;;2.58;;
45236;SDS011;30973;51.442;3.580;2022-08-19T14:58:47;5.95;;;2.35;;
45236;SDS011;30973;51.442;3.580;2022-08-19T15:01:18;6.78;;;2.28;;
45236;SDS011;30973;51.442;3.580;2022-08-19T15:03:47;4.95;;;2.40;;
45236;SDS011;30973;51.442;3.580;2022-08-19T15:06:15;6.75;;;2.45;;